MRBO weather

Boca Naranjo Airport
Quepos, Puntarenas, Costa Rica

Public forecast

Using degrees Celsius for public forecast. Weather courtesy of forecast.io.

METAR (pilot weather report)

Report is more than 2 hours old.

Closest report is Tobias Bolanos International Airport, 33.9 nm (62.9 km) N. Retrieved 2019/03/24 00:00 UTC (5 hours ago):

MRPV 240000Z 10012KT 9999 FEW030 19/14 A3007 WS R09 NOSIG

TAF (pilot weather forecast)

Forecast is more than 6 hours old.

Closest forecast is Tobias Bolanos International Airport, 33.9 nm (62.9 km) N. Retrieved 2019/03/23 18:18 UTC (11 hours ago):

TAF MRPV 231700Z 2318/2418 09017KT 9999 FEW035 TX28/2419Z TN18/2411Z